PWSweather.com
Personal Weather Stations
Station Observations

LlefiĆ BadalonaES

Lat: 41.44, Lon: 2.2175

Elevation: 213.254

Station Type: oregon WMR918

http://www.estacionmeteorologicabadalonallefia.com

Latest ConditionsUpdated 4:43:17 AM GMT+01:01 Thursday, Oct 23, 2014
Currently Today's Max Today's Min Today's Average
Temperature 58.6°F14.8°C 64.4°F18.0°C 58.6°F14.8°C 60.9°F16.1°C
Dew Point 41.1°F5.1°C 52.4°F11.3°C 40.9°F4.9°C 45.2°F7.3°C
Winds 5.1 mph NW8.2 kmh NW 7.5 mph NW12.1 kmh NW - 4.8 mph 7.7 kmh
Wind Gusts 8.1 mph13.0 kmh 12.5 mph20.1 kmh - -
Humidity 52% 65% 51% 56%
Pressure 30.15 in1021.0 mb 30.18 in1022.0 mb 30.15 in1021.0 mb -
Hour Temp Dew Point Humidity Winds Wind Gusts Pressure Precip Precip Rate Daily Precip Total
04:43 AM 58.6°F14.8°C 41.1°F5.1°C 52% 5.1 mph NW8.2 kmh NW 8.1 mph13.0 kmh 30.15 in1021.0 mb 0.00 in0.0 mm 0.00 in/hr0.0 mm/hr 0.00 in0.0 mm
04:33 AM 59.0°F15.0°C 40.9°F4.9°C 51% 5.8 mph NW9.3 kmh NW 10.7 mph17.2 kmh 30.15 in1021.0 mb 0.00 in0.0 mm 0.00 in/hr0.0 mm/hr 0.00 in0.0 mm
04:23 AM 59.2°F15.1°C 41.1°F5.1°C 51% 6.9 mph NW11.1 kmh NW 12.5 mph20.1 kmh 30.15 in1021.0 mb 0.00 in0.0 mm 0.00 in/hr0.0 mm/hr 0.00 in0.0 mm
04:13 AM 59.2°F15.1°C 41.1°F5.1°C 51% 6.7 mph NW10.8 kmh NW 10.5 mph16.9 kmh 30.15 in1021.0 mb 0.00 in0.0 mm 0.00 in/hr0.0 mm/hr 0.00 in0.0 mm
04:03 AM 59.5°F15.3°C 41.4°F5.2°C 51% 5.4 mph NW8.7 kmh NW 10.5 mph16.9 kmh 30.15 in1021.0 mb 0.00 in0.0 mm 0.00 in/hr0.0 mm/hr 0.00 in0.0 mm
03:53 AM 59.9°F15.5°C 41.7°F5.4°C 51% 5.4 mph NW8.7 kmh NW 8.1 mph13.0 kmh 30.15 in1021.0 mb 0.00 in0.0 mm 0.00 in/hr0.0 mm/hr 0.00 in0.0 mm
03:43 AM 60.1°F15.6°C 42.4°F5.8°C 52% 5.6 mph NW9.0 kmh NW 9.9 mph15.9 kmh 30.15 in1021.0 mb 0.00 in0.0 mm 0.00 in/hr0.0 mm/hr 0.00 in0.0 mm
03:33 AM 59.9°F15.5°C 42.7°F5.9°C 53% 5.2 mph NW8.4 kmh NW 8.1 mph13.0 kmh 30.15 in1021.0 mb 0.00 in0.0 mm 0.00 in/hr0.0 mm/hr 0.00 in0.0 mm
03:23 AM 59.7°F15.4°C 42.1°F5.6°C 52% 4.6 mph NW7.4 kmh NW 7.6 mph12.2 kmh 30.15 in1021.0 mb 0.00 in0.0 mm 0.00 in/hr0.0 mm/hr 0.00 in0.0 mm
03:13 AM 59.7°F15.4°C 42.1°F5.6°C 52% 4.6 mph NW7.4 kmh NW 8.1 mph13.0 kmh 30.18 in1022.0 mb 0.00 in0.0 mm 0.00 in/hr0.0 mm/hr 0.00 in0.0 mm
03:03 AM 59.9°F15.5°C 42.3°F5.7°C 52% 3.7 mph NW6.0 kmh NW 6.4 mph10.3 kmh 30.18 in1022.0 mb 0.00 in0.0 mm 0.00 in/hr0.0 mm/hr 0.00 in0.0 mm
02:53 AM 60.3°F15.7°C 42.6°F5.9°C 52% 4.9 mph NW7.9 kmh NW 8.1 mph13.0 kmh 30.18 in1022.0 mb 0.00 in0.0 mm 0.00 in/hr0.0 mm/hr 0.00 in0.0 mm
02:43 AM 60.4°F15.8°C 42.7°F5.9°C 52% 7.0 mph NW11.3 kmh NW 10.7 mph17.2 kmh 30.18 in1022.0 mb 0.00 in0.0 mm 0.00 in/hr0.0 mm/hr 0.00 in0.0 mm
02:33 AM 60.6°F15.9°C 43.4°F6.3°C 53% 3.3 mph NW5.3 kmh NW 5.2 mph8.4 kmh 30.18 in1022.0 mb 0.00 in0.0 mm 0.00 in/hr0.0 mm/hr 0.00 in0.0 mm
02:23 AM 60.6°F15.9°C 43.9°F6.6°C 54% 5.5 mph NW8.9 kmh NW 7.6 mph12.2 kmh 30.18 in1022.0 mb 0.00 in0.0 mm 0.00 in/hr0.0 mm/hr 0.00 in0.0 mm
02:13 AM 60.8°F16.0°C 45.0°F7.2°C 56% 2.9 mph NW4.7 kmh NW 7.0 mph11.3 kmh 30.18 in1022.0 mb 0.00 in0.0 mm 0.00 in/hr0.0 mm/hr 0.00 in0.0 mm
02:03 AM 60.8°F16.0°C 45.5°F7.5°C 57% 5.4 mph NW8.7 kmh NW 9.9 mph15.9 kmh 30.18 in1022.0 mb 0.00 in0.0 mm 0.00 in/hr0.0 mm/hr 0.00 in0.0 mm
01:53 AM 60.8°F16.0°C 46.4°F8.0°C 59% 6.3 mph NW10.1 kmh NW 11.3 mph18.2 kmh 30.18 in1022.0 mb 0.00 in0.0 mm 0.00 in/hr0.0 mm/hr 0.00 in0.0 mm
01:43 AM 60.8°F16.0°C 46.8°F8.2°C 60% 5.1 mph NW8.2 kmh NW 8.1 mph13.0 kmh 30.18 in1022.0 mb 0.00 in0.0 mm 0.00 in/hr0.0 mm/hr 0.00 in0.0 mm
01:33 AM 61.0°F16.1°C 47.4°F8.6°C 61% 1.4 mph NW2.3 kmh NW 7.6 mph12.2 kmh 30.18 in1022.0 mb 0.00 in0.0 mm 0.00 in/hr0.0 mm/hr 0.00 in0.0 mm
01:23 AM 61.2°F16.2°C 48.0°F8.9°C 62% 4.3 mph W6.9 kmh W 8.1 mph13.0 kmh 30.18 in1022.0 mb 0.00 in0.0 mm 0.00 in/hr0.0 mm/hr 0.00 in0.0 mm
01:13 AM 61.5°F16.4°C 48.4°F9.1°C 62% 7.5 mph NW12.1 kmh NW 10.5 mph16.9 kmh 30.18 in1022.0 mb 0.00 in0.0 mm 0.00 in/hr0.0 mm/hr 0.00 in0.0 mm
01:03 AM 62.6°F17.0°C 50.7°F10.4°C 65% 5.3 mph NW8.5 kmh NW 10.7 mph17.2 kmh 30.18 in1022.0 mb 0.00 in0.0 mm 0.00 in/hr0.0 mm/hr 0.00 in0.0 mm
12:53 AM 62.6°F17.0°C 49.8°F9.9°C 63% 3.4 mph NW5.5 kmh NW 6.4 mph10.3 kmh 30.18 in1022.0 mb 0.00 in0.0 mm 0.00 in/hr0.0 mm/hr 0.00 in0.0 mm
12:43 AM 63.1°F17.3°C 49.9°F9.9°C 62% 2.7 mph NW4.3 kmh NW 8.1 mph13.0 kmh 30.18 in1022.0 mb 0.00 in0.0 mm 0.00 in/hr0.0 mm/hr 0.00 in0.0 mm
12:33 AM 63.1°F17.3°C 49.0°F9.4°C 60% 5.6 mph NW9.0 kmh NW 10.5 mph16.9 kmh 30.18 in1022.0 mb 0.00 in0.0 mm 0.00 in/hr0.0 mm/hr 0.00 in0.0 mm
12:23 AM 63.5°F17.5°C 50.2°F10.1°C 62% 1.6 mph W2.6 kmh W 6.4 mph10.3 kmh 30.18 in1022.0 mb 0.00 in0.0 mm 0.00 in/hr0.0 mm/hr 0.00 in0.0 mm
12:13 AM 64.4°F18.0°C 52.4°F11.3°C 65% 4.3 mph W6.9 kmh W 5.2 mph8.4 kmh 30.18 in1022.0 mb 0.00 in0.0 mm 0.00 in/hr0.0 mm/hr 0.00 in0.0 mm
12:03 AM 63.3°F17.4°C 49.6°F9.8°C 61% 4.8 mph WNW7.7 kmh WNW 10.7 mph17.2 kmh 30.18 in1022.0 mb 0.00 in0.0 mm 0.00 in/hr0.0 mm/hr 0.00 in0.0 mm